sensor_id;sensor_type;location;lat;lon;timestamp;temperature;humidity
14170;DHT22;63889;50.596;8.690;2024-02-16T00:00:17;10.50;99.90
14170;DHT22;63889;50.596;8.690;2024-02-16T00:02:43;10.50;99.90
14170;DHT22;63889;50.596;8.690;2024-02-16T00:05:09;10.50;99.90
14170;DHT22;63889;50.596;8.690;2024-02-16T00:07:40;10.50;99.90
14170;DHT22;63889;50.596;8.690;2024-02-16T00:10:07;10.50;99.90
14170;DHT22;63889;50.596;8.690;2024-02-16T00:12:33;10.40;99.90
14170;DHT22;63889;50.596;8.690;2024-02-16T00:15:00;10.40;99.90
14170;DHT22;63889;50.596;8.690;2024-02-16T00:17:26;10.40;99.90
14170;DHT22;63889;50.596;8.690;2024-02-16T00:19:53;10.30;99.90
14170;DHT22;63889;50.596;8.690;2024-02-16T00:22:19;10.30;99.90
14170;DHT22;63889;50.596;8.690;2024-02-16T00:24:44;10.40;99.90
14170;DHT22;63889;50.596;8.690;2024-02-16T00:27:10;10.40;99.90
14170;DHT22;63889;50.596;8.690;2024-02-16T00:29:36;10.40;99.90
14170;DHT22;63889;50.596;8.690;2024-02-16T00:32:04;10.30;99.90
14170;DHT22;63889;50.596;8.690;2024-02-16T00:34:29;10.30;99.90
14170;DHT22;63889;50.596;8.690;2024-02-16T00:36:55;10.30;99.90
14170;DHT22;63889;50.596;8.690;2024-02-16T00:39:20;10.30;99.90
14170;DHT22;63889;50.596;8.690;2024-02-16T00:41:47;10.30;99.90
14170;DHT22;63889;50.596;8.690;2024-02-16T00:44:12;10.30;99.90
14170;DHT22;63889;50.596;8.690;2024-02-16T00:46:38;10.20;99.90
14170;DHT22;63889;50.596;8.690;2024-02-16T00:49:03;10.30;99.90
14170;DHT22;63889;50.596;8.690;2024-02-16T00:51:29;10.30;99.90
14170;DHT22;63889;50.596;8.690;2024-02-16T00:53:55;10.40;99.90
14170;DHT22;63889;50.596;8.690;2024-02-16T00:56:21;10.30;99.90
14170;DHT22;63889;50.596;8.690;2024-02-16T00:58:47;10.40;99.90
14170;DHT22;63889;50.596;8.690;2024-02-16T01:01:12;10.30;99.90
14170;DHT22;63889;50.596;8.690;2024-02-16T01:03:39;10.40;99.90
14170;DHT22;63889;50.596;8.690;2024-02-16T01:06:05;10.40;99.90
14170;DHT22;63889;50.596;8.690;2024-02-16T01:08:31;10.40;99.90
14170;DHT22;63889;50.596;8.690;2024-02-16T01:10:57;10.40;99.90
14170;DHT22;63889;50.596;8.690;2024-02-16T01:13:23;10.40;99.90
14170;DHT22;63889;50.596;8.690;2024-02-16T01:15:48;10.40;99.90
14170;DHT22;63889;50.596;8.690;2024-02-16T01:18:14;10.40;99.90
14170;DHT22;63889;50.596;8.690;2024-02-16T01:20:39;10.40;99.90
14170;DHT22;63889;50.596;8.690;2024-02-16T01:23:05;10.40;99.90
14170;DHT22;63889;50.596;8.690;2024-02-16T01:25:31;10.40;99.90
14170;DHT22;63889;50.596;8.690;2024-02-16T01:27:57;10.50;99.90
14170;DHT22;63889;50.596;8.690;2024-02-16T01:30:24;10.50;99.90
14170;DHT22;63889;50.596;8.690;2024-02-16T01:32:49;10.40;99.90
14170;DHT22;63889;50.596;8.690;2024-02-16T01:35:15;10.40;99.90
14170;DHT22;63889;50.596;8.690;2024-02-16T01:37:41;10.50;99.90
14170;DHT22;63889;50.596;8.690;2024-02-16T01:40:08;10.60;99.90
14170;DHT22;63889;50.596;8.690;2024-02-16T01:42:41;10.60;99.90
14170;DHT22;63889;50.596;8.690;2024-02-16T01:45:08;10.70;99.90
14170;DHT22;63889;50.596;8.690;2024-02-16T01:47:38;10.80;99.90
14170;DHT22;63889;50.596;8.690;2024-02-16T01:50:05;10.80;99.90
14170;DHT22;63889;50.596;8.690;2024-02-16T01:52:31;10.90;99.90
14170;DHT22;63889;50.596;8.690;2024-02-16T01:54:59;10.90;99.90
14170;DHT22;63889;50.596;8.690;2024-02-16T01:57:26;10.90;99.90
14170;DHT22;63889;50.596;8.690;2024-02-16T01:59:52;10.90;99.90
14170;DHT22;63889;50.596;8.690;2024-02-16T02:02:19;10.80;99.90
14170;DHT22;63889;50.596;8.690;2024-02-16T02:04:44;10.80;99.90
14170;DHT22;63889;50.596;8.690;2024-02-16T02:07:16;10.70;99.90
14170;DHT22;63889;50.596;8.690;2024-02-16T02:09:42;10.70;99.90
14170;DHT22;63889;50.596;8.690;2024-02-16T02:12:09;10.80;99.90
14170;DHT22;63889;50.596;8.690;2024-02-16T02:14:35;10.90;99.90
14170;DHT22;63889;50.596;8.690;2024-02-16T02:17:02;11.10;99.90
14170;DHT22;63889;50.596;8.690;2024-02-16T02:19:27;11.20;99.90
14170;DHT22;63889;50.596;8.690;2024-02-16T02:21:54;11.20;99.90
14170;DHT22;63889;50.596;8.690;2024-02-16T02:24:19;11.30;99.90
14170;DHT22;63889;50.596;8.690;2024-02-16T02:26:46;11.40;99.90
14170;DHT22;63889;50.596;8.690;2024-02-16T02:29:11;11.40;99.90
14170;DHT22;63889;50.596;8.690;2024-02-16T02:31:37;11.50;99.90
14170;DHT22;63889;50.596;8.690;2024-02-16T02:34:02;11.60;99.90
14170;DHT22;63889;50.596;8.690;2024-02-16T02:36:30;11.60;99.90
14170;DHT22;63889;50.596;8.690;2024-02-16T02:38:56;11.50;99.90
14170;DHT22;63889;50.596;8.690;2024-02-16T02:41:23;11.50;99.90
14170;DHT22;63889;50.596;8.690;2024-02-16T02:43:48;11.40;99.90
14170;DHT22;63889;50.596;8.690;2024-02-16T02:46:17;11.40;99.90
14170;DHT22;63889;50.596;8.690;2024-02-16T02:48:46;11.30;99.90
14170;DHT22;63889;50.596;8.690;2024-02-16T02:51:12;11.30;99.90
14170;DHT22;63889;50.596;8.690;2024-02-16T02:53:37;11.40;99.90
14170;DHT22;63889;50.596;8.690;2024-02-16T02:56:04;11.50;99.90
14170;DHT22;63889;50.596;8.690;2024-02-16T02:58:30;11.40;99.90
14170;DHT22;63889;50.596;8.690;2024-02-16T03:00:55;11.50;99.90
14170;DHT22;63889;50.596;8.690;2024-02-16T03:03:21;11.70;99.90
14170;DHT22;63889;50.596;8.690;2024-02-16T03:05:47;11.80;99.90
14170;DHT22;63889;50.596;8.690;2024-02-16T03:08:14;11.90;99.90
14170;DHT22;63889;50.596;8.690;2024-02-16T03:10:40;12.00;99.90
14170;DHT22;63889;50.596;8.690;2024-02-16T03:13:06;12.30;99.90
14170;DHT22;63889;50.596;8.690;2024-02-16T03:15:34;12.30;99.90
14170;DHT22;63889;50.596;8.690;2024-02-16T03:18:01;12.20;99.90
14170;DHT22;63889;50.596;8.690;2024-02-16T03:20:27;12.40;99.90
14170;DHT22;63889;50.596;8.690;2024-02-16T03:22:53;12.40;99.90
14170;DHT22;63889;50.596;8.690;2024-02-16T03:25:18;12.50;99.90
14170;DHT22;63889;50.596;8.690;2024-02-16T03:27:45;12.50;99.90
14170;DHT22;63889;50.596;8.690;2024-02-16T03:30:11;12.50;99.90
14170;DHT22;63889;50.596;8.690;2024-02-16T03:32:36;12.40;99.90
14170;DHT22;63889;50.596;8.690;2024-02-16T03:35:02;12.30;99.90
14170;DHT22;63889;50.596;8.690;2024-02-16T03:37:27;12.30;99.90
14170;DHT22;63889;50.596;8.690;2024-02-16T03:39:53;12.20;99.90
14170;DHT22;63889;50.596;8.690;2024-02-16T03:42:21;12.10;99.90
14170;DHT22;63889;50.596;8.690;2024-02-16T03:44:47;12.10;99.90
14170;DHT22;63889;50.596;8.690;2024-02-16T03:47:13;12.10;99.90
14170;DHT22;63889;50.596;8.690;2024-02-16T03:49:39;12.20;99.90
14170;DHT22;63889;50.596;8.690;2024-02-16T03:52:04;12.30;99.90
14170;DHT22;63889;50.596;8.690;2024-02-16T03:54:30;12.40;99.90
14170;DHT22;63889;50.596;8.690;2024-02-16T03:56:56;12.40;99.90
14170;DHT22;63889;50.596;8.690;2024-02-16T03:59:23;12.30;99.90
14170;DHT22;63889;50.596;8.690;2024-02-16T04:01:49;12.40;99.90
14170;DHT22;63889;50.596;8.690;2024-02-16T04:04:15;12.30;99.90
14170;DHT22;63889;50.596;8.690;2024-02-16T04:06:40;12.20;99.90
14170;DHT22;63889;50.596;8.690;2024-02-16T04:09:06;12.10;99.90
14170;DHT22;63889;50.596;8.690;2024-02-16T04:11:32;11.90;99.90
14170;DHT22;63889;50.596;8.690;2024-02-16T04:13:58;11.90;99.90
14170;DHT22;63889;50.596;8.690;2024-02-16T04:16:23;11.90;99.90
14170;DHT22;63889;50.596;8.690;2024-02-16T04:18:50;11.90;99.90
14170;DHT22;63889;50.596;8.690;2024-02-16T04:21:16;11.90;99.90
14170;DHT22;63889;50.596;8.690;2024-02-16T04:23:42;12.00;99.90
14170;DHT22;63889;50.596;8.690;2024-02-16T04:26:08;11.90;99.90
14170;DHT22;63889;50.596;8.690;2024-02-16T04:28:34;11.90;99.90
14170;DHT22;63889;50.596;8.690;2024-02-16T04:31:00;11.90;99.90
14170;DHT22;63889;50.596;8.690;2024-02-16T04:33:25;11.90;99.90
14170;DHT22;63889;50.596;8.690;2024-02-16T04:35:51;12.00;99.90
14170;DHT22;63889;50.596;8.690;2024-02-16T04:38:17;11.90;99.90
14170;DHT22;63889;50.596;8.690;2024-02-16T04:40:43;12.00;99.90
14170;DHT22;63889;50.596;8.690;2024-02-16T04:43:08;12.10;99.90
14170;DHT22;63889;50.596;8.690;2024-02-16T04:45:34;12.00;99.90
14170;DHT22;63889;50.596;8.690;2024-02-16T04:48:05;12.10;99.90
14170;DHT22;63889;50.596;8.690;2024-02-16T04:50:32;12.00;99.90
14170;DHT22;63889;50.596;8.690;2024-02-16T04:52:58;12.00;99.90
14170;DHT22;63889;50.596;8.690;2024-02-16T04:55:23;11.90;99.90
14170;DHT22;63889;50.596;8.690;2024-02-16T04:57:49;12.00;99.90
14170;DHT22;63889;50.596;8.690;2024-02-16T05:00:15;11.90;99.90
14170;DHT22;63889;50.596;8.690;2024-02-16T05:02:40;12.00;99.90
14170;DHT22;63889;50.596;8.690;2024-02-16T05:05:06;11.90;99.90
14170;DHT22;63889;50.596;8.690;2024-02-16T05:07:33;12.00;99.90
14170;DHT22;63889;50.596;8.690;2024-02-16T05:09:59;12.00;99.90
14170;DHT22;63889;50.596;8.690;2024-02-16T05:12:25;12.00;99.90
14170;DHT22;63889;50.596;8.690;2024-02-16T05:14:51;11.90;99.90
14170;DHT22;63889;50.596;8.690;2024-02-16T05:17:18;12.00;99.90
14170;DHT22;63889;50.596;8.690;2024-02-16T05:19:44;12.00;99.90
14170;DHT22;63889;50.596;8.690;2024-02-16T05:22:09;12.00;99.90
14170;DHT22;63889;50.596;8.690;2024-02-16T05:24:35;11.90;99.90
14170;DHT22;63889;50.596;8.690;2024-02-16T05:27:01;11.90;99.90
14170;DHT22;63889;50.596;8.690;2024-02-16T05:29:26;11.90;99.90
14170;DHT22;63889;50.596;8.690;2024-02-16T05:31:52;11.80;99.90
14170;DHT22;63889;50.596;8.690;2024-02-16T05:34:18;11.70;99.90
14170;DHT22;63889;50.596;8.690;2024-02-16T05:36:43;11.60;99.90
14170;DHT22;63889;50.596;8.690;2024-02-16T05:39:10;11.60;99.90
14170;DHT22;63889;50.596;8.690;2024-02-16T05:41:46;11.70;99.90
14170;DHT22;63889;50.596;8.690;2024-02-16T05:44:12;11.60;99.90
14170;DHT22;63889;50.596;8.690;2024-02-16T05:46:38;11.60;99.90
14170;DHT22;63889;50.596;8.690;2024-02-16T05:49:04;11.60;99.90
14170;DHT22;63889;50.596;8.690;2024-02-16T05:51:37;11.60;99.90
14170;DHT22;63889;50.596;8.690;2024-02-16T05:54:04;11.60;99.90
14170;DHT22;63889;50.596;8.690;2024-02-16T05:56:30;11.60;99.90
14170;DHT22;63889;50.596;8.690;2024-02-16T05:58:59;11.50;99.90
14170;DHT22;63889;50.596;8.690;2024-02-16T06:01:25;11.50;99.90
14170;DHT22;63889;50.596;8.690;2024-02-16T06:03:50;11.50;99.90
14170;DHT22;63889;50.596;8.690;2024-02-16T06:06:16;11.50;99.90
14170;DHT22;63889;50.596;8.690;2024-02-16T06:08:41;11.60;99.90
14170;DHT22;63889;50.596;8.690;2024-02-16T06:11:07;11.70;99.90
14170;DHT22;63889;50.596;8.690;2024-02-16T06:13:33;11.70;99.90
14170;DHT22;63889;50.596;8.690;2024-02-16T06:15:58;11.80;99.90
14170;DHT22;63889;50.596;8.690;2024-02-16T06:18:24;11.90;99.90
14170;DHT22;63889;50.596;8.690;2024-02-16T06:20:49;12.10;99.90
14170;DHT22;63889;50.596;8.690;2024-02-16T06:23:15;12.10;99.90
14170;DHT22;63889;50.596;8.690;2024-02-16T06:25:42;12.20;99.90
14170;DHT22;63889;50.596;8.690;2024-02-16T06:28:08;12.10;99.90
14170;DHT22;63889;50.596;8.690;2024-02-16T06:30:34;12.10;99.90
14170;DHT22;63889;50.596;8.690;2024-02-16T06:32:59;12.10;99.90
14170;DHT22;63889;50.596;8.690;2024-02-16T06:35:26;12.00;99.90
14170;DHT22;63889;50.596;8.690;2024-02-16T06:37:51;12.10;99.90
14170;DHT22;63889;50.596;8.690;2024-02-16T06:40:17;12.20;99.90
14170;DHT22;63889;50.596;8.690;2024-02-16T06:42:43;12.20;99.90
14170;DHT22;63889;50.596;8.690;2024-02-16T06:45:08;12.20;99.90
14170;DHT22;63889;50.596;8.690;2024-02-16T06:47:34;12.20;99.90
14170;DHT22;63889;50.596;8.690;2024-02-16T06:50:00;12.20;99.90
14170;DHT22;63889;50.596;8.690;2024-02-16T06:52:25;12.10;99.90
14170;DHT22;63889;50.596;8.690;2024-02-16T06:54:51;12.10;99.90
14170;DHT22;63889;50.596;8.690;2024-02-16T06:57:17;12.00;99.90
14170;DHT22;63889;50.596;8.690;2024-02-16T06:59:43;12.10;99.90
14170;DHT22;63889;50.596;8.690;2024-02-16T07:02:08;12.00;99.90
14170;DHT22;63889;50.596;8.690;2024-02-16T07:04:36;11.80;99.90
14170;DHT22;63889;50.596;8.690;2024-02-16T07:07:01;11.60;99.90
14170;DHT22;63889;50.596;8.690;2024-02-16T07:09:27;11.70;99.90
14170;DHT22;63889;50.596;8.690;2024-02-16T07:11:53;11.80;99.90
14170;DHT22;63889;50.596;8.690;2024-02-16T07:14:18;11.80;99.90
14170;DHT22;63889;50.596;8.690;2024-02-16T07:16:44;11.90;99.90
14170;DHT22;63889;50.596;8.690;2024-02-16T07:19:09;12.00;99.90
14170;DHT22;63889;50.596;8.690;2024-02-16T07:21:35;11.90;99.90
14170;DHT22;63889;50.596;8.690;2024-02-16T07:24:01;11.90;99.90
14170;DHT22;63889;50.596;8.690;2024-02-16T07:26:27;11.90;99.90
14170;DHT22;63889;50.596;8.690;2024-02-16T07:28:52;12.10;99.90
14170;DHT22;63889;50.596;8.690;2024-02-16T07:31:18;12.10;99.90
14170;DHT22;63889;50.596;8.690;2024-02-16T07:33:44;12.30;99.90
14170;DHT22;63889;50.596;8.690;2024-02-16T07:36:09;12.20;99.90
14170;DHT22;63889;50.596;8.690;2024-02-16T07:38:35;12.10;99.90
14170;DHT22;63889;50.596;8.690;2024-02-16T07:41:01;12.20;99.90
14170;DHT22;63889;50.596;8.690;2024-02-16T07:43:28;12.30;99.90
14170;DHT22;63889;50.596;8.690;2024-02-16T07:45:53;12.40;99.90
14170;DHT22;63889;50.596;8.690;2024-02-16T07:48:20;12.40;99.90
14170;DHT22;63889;50.596;8.690;2024-02-16T07:50:48;12.40;99.90
14170;DHT22;63889;50.596;8.690;2024-02-16T07:53:15;12.40;99.90
14170;DHT22;63889;50.596;8.690;2024-02-16T07:55:41;12.20;99.90
14170;DHT22;63889;50.596;8.690;2024-02-16T07:58:07;12.10;99.90
14170;DHT22;63889;50.596;8.690;2024-02-16T08:00:32;12.00;99.90
14170;DHT22;63889;50.596;8.690;2024-02-16T08:02:58;12.30;99.90
14170;DHT22;63889;50.596;8.690;2024-02-16T08:05:24;12.40;99.90
14170;DHT22;63889;50.596;8.690;2024-02-16T08:07:51;12.70;99.90
14170;DHT22;63889;50.596;8.690;2024-02-16T08:10:21;12.60;99.90
14170;DHT22;63889;50.596;8.690;2024-02-16T08:12:47;12.80;99.90
14170;DHT22;63889;50.596;8.690;2024-02-16T08:15:12;12.90;99.90
14170;DHT22;63889;50.596;8.690;2024-02-16T08:17:39;12.90;99.90
14170;DHT22;63889;50.596;8.690;2024-02-16T08:20:06;12.90;99.90
14170;DHT22;63889;50.596;8.690;2024-02-16T08:22:31;13.00;99.90
14170;DHT22;63889;50.596;8.690;2024-02-16T08:24:58;13.00;99.90
14170;DHT22;63889;50.596;8.690;2024-02-16T08:27:23;13.00;99.90
14170;DHT22;63889;50.596;8.690;2024-02-16T08:29:50;12.80;99.90
14170;DHT22;63889;50.596;8.690;2024-02-16T08:32:17;12.80;99.90
14170;DHT22;63889;50.596;8.690;2024-02-16T08:34:43;12.70;99.90
14170;DHT22;63889;50.596;8.690;2024-02-16T08:37:09;12.90;99.90
14170;DHT22;63889;50.596;8.690;2024-02-16T08:39:37;12.80;99.90
14170;DHT22;63889;50.596;8.690;2024-02-16T08:42:03;12.90;99.90
14170;DHT22;63889;50.596;8.690;2024-02-16T08:44:29;12.90;99.90
14170;DHT22;63889;50.596;8.690;2024-02-16T08:46:54;13.00;99.90
14170;DHT22;63889;50.596;8.690;2024-02-16T08:49:20;13.00;99.90
14170;DHT22;63889;50.596;8.690;2024-02-16T08:51:47;13.10;99.90
14170;DHT22;63889;50.596;8.690;2024-02-16T08:54:13;13.10;99.90
14170;DHT22;63889;50.596;8.690;2024-02-16T08:56:38;13.10;99.90
14170;DHT22;63889;50.596;8.690;2024-02-16T08:59:05;13.20;99.90
14170;DHT22;63889;50.596;8.690;2024-02-16T09:01:35;13.20;99.90
14170;DHT22;63889;50.596;8.690;2024-02-16T09:04:01;13.20;99.90
14170;DHT22;63889;50.596;8.690;2024-02-16T09:06:27;13.20;99.90
14170;DHT22;63889;50.596;8.690;2024-02-16T09:08:54;13.30;99.90
14170;DHT22;63889;50.596;8.690;2024-02-16T09:11:19;13.40;99.90
14170;DHT22;63889;50.596;8.690;2024-02-16T09:13:45;13.40;99.90
14170;DHT22;63889;50.596;8.690;2024-02-16T09:16:11;13.40;99.90
14170;DHT22;63889;50.596;8.690;2024-02-16T09:18:36;13.40;99.90
14170;DHT22;63889;50.596;8.690;2024-02-16T09:21:03;13.40;99.90
14170;DHT22;63889;50.596;8.690;2024-02-16T09:23:28;13.50;99.90
14170;DHT22;63889;50.596;8.690;2024-02-16T09:25:54;13.50;99.90
14170;DHT22;63889;50.596;8.690;2024-02-16T09:28:20;13.60;99.90
14170;DHT22;63889;50.596;8.690;2024-02-16T09:30:48;13.50;99.90
14170;DHT22;63889;50.596;8.690;2024-02-16T09:33:14;13.40;99.90
14170;DHT22;63889;50.596;8.690;2024-02-16T09:35:40;13.50;99.90
14170;DHT22;63889;50.596;8.690;2024-02-16T09:38:06;13.50;99.90
14170;DHT22;63889;50.596;8.690;2024-02-16T09:40:31;13.60;99.90
14170;DHT22;63889;50.596;8.690;2024-02-16T09:42:57;13.70;99.90
14170;DHT22;63889;50.596;8.690;2024-02-16T09:45:24;13.50;99.90
14170;DHT22;63889;50.596;8.690;2024-02-16T09:47:51;13.60;99.90
14170;DHT22;63889;50.596;8.690;2024-02-16T09:50:17;13.70;99.90
14170;DHT22;63889;50.596;8.690;2024-02-16T09:52:47;13.70;99.90
14170;DHT22;63889;50.596;8.690;2024-02-16T09:55:13;13.80;99.90
14170;DHT22;63889;50.596;8.690;2024-02-16T09:57:39;13.80;99.90
14170;DHT22;63889;50.596;8.690;2024-02-16T10:00:05;13.80;99.90
14170;DHT22;63889;50.596;8.690;2024-02-16T10:02:41;13.80;99.90
14170;DHT22;63889;50.596;8.690;2024-02-16T10:05:19;13.80;99.90
14170;DHT22;63889;50.596;8.690;2024-02-16T10:07:45;14.00;99.90
14170;DHT22;63889;50.596;8.690;2024-02-16T10:10:21;14.20;99.90
14170;DHT22;63889;50.596;8.690;2024-02-16T10:13:00;14.20;99.90
14170;DHT22;63889;50.596;8.690;2024-02-16T10:15:26;14.20;99.90
14170;DHT22;63889;50.596;8.690;2024-02-16T10:18:01;14.20;99.90
14170;DHT22;63889;50.596;8.690;2024-02-16T10:20:27;14.20;99.90
14170;DHT22;63889;50.596;8.690;2024-02-16T10:23:09;14.40;99.90
14170;DHT22;63889;50.596;8.690;2024-02-16T10:25:36;14.40;99.90
14170;DHT22;63889;50.596;8.690;2024-02-16T10:28:11;14.40;99.90
14170;DHT22;63889;50.596;8.690;2024-02-16T10:30:41;14.60;99.90
14170;DHT22;63889;50.596;8.690;2024-02-16T10:33:08;14.60;99.90
14170;DHT22;63889;50.596;8.690;2024-02-16T10:35:35;14.60;99.90
14170;DHT22;63889;50.596;8.690;2024-02-16T10:38:02;14.60;99.90
14170;DHT22;63889;50.596;8.690;2024-02-16T10:40:32;14.70;99.90
14170;DHT22;63889;50.596;8.690;2024-02-16T10:43:03;14.60;99.90
14170;DHT22;63889;50.596;8.690;2024-02-16T10:45:30;14.70;99.90
14170;DHT22;63889;50.596;8.690;2024-02-16T10:47:57;14.60;99.90
14170;DHT22;63889;50.596;8.690;2024-02-16T10:50:23;14.70;99.90
14170;DHT22;63889;50.596;8.690;2024-02-16T10:52:49;14.70;99.90
14170;DHT22;63889;50.596;8.690;2024-02-16T10:55:15;14.70;99.90
14170;DHT22;63889;50.596;8.690;2024-02-16T10:57:42;14.70;99.90
14170;DHT22;63889;50.596;8.690;2024-02-16T11:00:08;14.70;99.90
14170;DHT22;63889;50.596;8.690;2024-02-16T11:02:57;14.70;99.90
14170;DHT22;63889;50.596;8.690;2024-02-16T11:05:40;14.80;99.90
14170;DHT22;63889;50.596;8.690;2024-02-16T11:08:15;14.90;99.90
14170;DHT22;63889;50.596;8.690;2024-02-16T11:10:54;14.80;99.90
14170;DHT22;63889;50.596;8.690;2024-02-16T11:13:24;14.80;99.90
14170;DHT22;63889;50.596;8.690;2024-02-16T11:15:59;14.60;99.90
14170;DHT22;63889;50.596;8.690;2024-02-16T11:18:27;14.60;99.90
14170;DHT22;63889;50.596;8.690;2024-02-16T11:20:53;14.40;99.90
14170;DHT22;63889;50.596;8.690;2024-02-16T11:23:26;14.50;99.90
14170;DHT22;63889;50.596;8.690;2024-02-16T11:25:53;14.50;99.90
14170;DHT22;63889;50.596;8.690;2024-02-16T11:28:18;14.70;99.90
14170;DHT22;63889;50.596;8.690;2024-02-16T11:30:44;14.40;99.90
14170;DHT22;63889;50.596;8.690;2024-02-16T11:33:13;14.40;99.90
14170;DHT22;63889;50.596;8.690;2024-02-16T11:35:40;14.50;99.90
14170;DHT22;63889;50.596;8.690;2024-02-16T11:38:05;14.40;99.90
14170;DHT22;63889;50.596;8.690;2024-02-16T11:40:32;14.60;99.90
14170;DHT22;63889;50.596;8.690;2024-02-16T11:42:59;14.80;99.90
14170;DHT22;63889;50.596;8.690;2024-02-16T11:45:24;14.70;99.90
14170;DHT22;63889;50.596;8.690;2024-02-16T11:47:50;14.50;99.90
14170;DHT22;63889;50.596;8.690;2024-02-16T11:50:17;14.70;99.90
14170;DHT22;63889;50.596;8.690;2024-02-16T11:52:43;14.70;99.90
14170;DHT22;63889;50.596;8.690;2024-02-16T11:55:10;14.60;99.90
14170;DHT22;63889;50.596;8.690;2024-02-16T11:57:37;14.60;99.90
14170;DHT22;63889;50.596;8.690;2024-02-16T12:00:03;14.70;99.90
14170;DHT22;63889;50.596;8.690;2024-02-16T12:02:35;14.80;99.90
14170;DHT22;63889;50.596;8.690;2024-02-16T12:05:01;14.90;99.90
14170;DHT22;63889;50.596;8.690;2024-02-16T12:07:27;15.10;99.90
14170;DHT22;63889;50.596;8.690;2024-02-16T12:09:57;15.00;99.90
14170;DHT22;63889;50.596;8.690;2024-02-16T12:12:24;15.30;99.90
14170;DHT22;63889;50.596;8.690;2024-02-16T12:14:49;15.50;99.90
14170;DHT22;63889;50.596;8.690;2024-02-16T12:17:15;15.30;99.90
14170;DHT22;63889;50.596;8.690;2024-02-16T12:19:44;15.10;99.90
14170;DHT22;63889;50.596;8.690;2024-02-16T12:22:17;15.20;99.90
14170;DHT22;63889;50.596;8.690;2024-02-16T12:24:49;15.20;99.90
14170;DHT22;63889;50.596;8.690;2024-02-16T12:27:15;15.30;99.90
14170;DHT22;63889;50.596;8.690;2024-02-16T12:29:41;15.50;99.90
14170;DHT22;63889;50.596;8.690;2024-02-16T12:32:07;15.50;99.90
14170;DHT22;63889;50.596;8.690;2024-02-16T12:34:35;15.60;99.90
14170;DHT22;63889;50.596;8.690;2024-02-16T12:37:04;15.50;99.90
14170;DHT22;63889;50.596;8.690;2024-02-16T12:39:30;15.40;99.90
14170;DHT22;63889;50.596;8.690;2024-02-16T12:41:56;15.60;99.90
14170;DHT22;63889;50.596;8.690;2024-02-16T12:44:22;15.70;99.90
14170;DHT22;63889;50.596;8.690;2024-02-16T12:46:48;15.70;99.90
14170;DHT22;63889;50.596;8.690;2024-02-16T12:49:13;15.60;99.90
14170;DHT22;63889;50.596;8.690;2024-02-16T12:51:39;15.50;99.90
14170;DHT22;63889;50.596;8.690;2024-02-16T12:54:04;15.80;99.90
14170;DHT22;63889;50.596;8.690;2024-02-16T12:56:30;15.90;99.90
14170;DHT22;63889;50.596;8.690;2024-02-16T12:58:56;16.10;99.90
14170;DHT22;63889;50.596;8.690;2024-02-16T13:01:22;16.20;99.90
14170;DHT22;63889;50.596;8.690;2024-02-16T13:03:48;16.40;99.90
14170;DHT22;63889;50.596;8.690;2024-02-16T13:06:13;16.40;99.90
14170;DHT22;63889;50.596;8.690;2024-02-16T13:08:39;16.40;99.90
14170;DHT22;63889;50.596;8.690;2024-02-16T13:11:04;16.40;99.90
14170;DHT22;63889;50.596;8.690;2024-02-16T13:13:30;16.50;99.90
14170;DHT22;63889;50.596;8.690;2024-02-16T13:15:57;16.50;99.90
14170;DHT22;63889;50.596;8.690;2024-02-16T13:18:24;16.50;99.90
14170;DHT22;63889;50.596;8.690;2024-02-16T13:20:49;16.50;99.90
14170;DHT22;63889;50.596;8.690;2024-02-16T13:23:15;16.40;99.90
14170;DHT22;63889;50.596;8.690;2024-02-16T13:25:41;16.50;99.90
14170;DHT22;63889;50.596;8.690;2024-02-16T13:28:06;16.50;99.90
14170;DHT22;63889;50.596;8.690;2024-02-16T13:30:32;16.50;99.90
14170;DHT22;63889;50.596;8.690;2024-02-16T13:32:57;16.50;99.90
14170;DHT22;63889;50.596;8.690;2024-02-16T13:35:23;16.60;99.90
14170;DHT22;63889;50.596;8.690;2024-02-16T13:37:49;16.60;99.90
14170;DHT22;63889;50.596;8.690;2024-02-16T13:40:15;16.30;99.90
14170;DHT22;63889;50.596;8.690;2024-02-16T13:42:42;16.10;99.90
14170;DHT22;63889;50.596;8.690;2024-02-16T13:45:08;16.00;99.90
14170;DHT22;63889;50.596;8.690;2024-02-16T13:47:35;15.90;99.90
14170;DHT22;63889;50.596;8.690;2024-02-16T13:50:00;15.90;99.90
14170;DHT22;63889;50.596;8.690;2024-02-16T13:52:26;16.10;99.90
14170;DHT22;63889;50.596;8.690;2024-02-16T13:54:52;16.00;99.90
14170;DHT22;63889;50.596;8.690;2024-02-16T13:57:18;15.70;99.90
14170;DHT22;63889;50.596;8.690;2024-02-16T13:59:43;15.70;99.90
14170;DHT22;63889;50.596;8.690;2024-02-16T14:02:09;15.80;99.90
14170;DHT22;63889;50.596;8.690;2024-02-16T14:04:36;15.90;99.90
14170;DHT22;63889;50.596;8.690;2024-02-16T14:07:02;15.90;99.90
14170;DHT22;63889;50.596;8.690;2024-02-16T14:09:27;16.00;99.90
14170;DHT22;63889;50.596;8.690;2024-02-16T14:11:53;16.00;99.90
14170;DHT22;63889;50.596;8.690;2024-02-16T14:14:20;16.00;99.90
14170;DHT22;63889;50.596;8.690;2024-02-16T14:16:47;15.90;99.90
14170;DHT22;63889;50.596;8.690;2024-02-16T14:19:12;15.80;99.90
14170;DHT22;63889;50.596;8.690;2024-02-16T14:21:38;15.80;99.90
14170;DHT22;63889;50.596;8.690;2024-02-16T14:24:03;16.00;99.90
14170;DHT22;63889;50.596;8.690;2024-02-16T14:26:29;16.00;99.90
14170;DHT22;63889;50.596;8.690;2024-02-16T14:28:54;16.00;99.90
14170;DHT22;63889;50.596;8.690;2024-02-16T14:31:21;16.00;99.90
14170;DHT22;63889;50.596;8.690;2024-02-16T14:33:48;15.80;99.90
14170;DHT22;63889;50.596;8.690;2024-02-16T14:36:13;15.80;99.90
14170;DHT22;63889;50.596;8.690;2024-02-16T14:38:39;15.80;99.90
14170;DHT22;63889;50.596;8.690;2024-02-16T14:41:05;15.70;99.90
14170;DHT22;63889;50.596;8.690;2024-02-16T14:43:31;15.60;99.90
14170;DHT22;63889;50.596;8.690;2024-02-16T14:45:58;15.60;99.90
14170;DHT22;63889;50.596;8.690;2024-02-16T14:48:23;15.50;99.90
14170;DHT22;63889;50.596;8.690;2024-02-16T14:50:51;15.50;99.90
14170;DHT22;63889;50.596;8.690;2024-02-16T14:53:20;15.40;99.90
14170;DHT22;63889;50.596;8.690;2024-02-16T14:55:46;15.50;99.90
14170;DHT22;63889;50.596;8.690;2024-02-16T14:58:13;15.50;99.90
14170;DHT22;63889;50.596;8.690;2024-02-16T15:00:38;15.50;99.90
14170;DHT22;63889;50.596;8.690;2024-02-16T15:03:04;15.40;99.90
14170;DHT22;63889;50.596;8.690;2024-02-16T15:05:30;15.50;99.90
14170;DHT22;63889;50.596;8.690;2024-02-16T15:07:56;15.40;99.90
14170;DHT22;63889;50.596;8.690;2024-02-16T15:10:22;15.40;99.90
14170;DHT22;63889;50.596;8.690;2024-02-16T15:12:47;15.40;99.90
14170;DHT22;63889;50.596;8.690;2024-02-16T15:15:13;15.40;99.90
14170;DHT22;63889;50.596;8.690;2024-02-16T15:17:39;15.50;99.90
14170;DHT22;63889;50.596;8.690;2024-02-16T15:20:05;15.50;99.90
14170;DHT22;63889;50.596;8.690;2024-02-16T15:22:32;15.40;99.90
14170;DHT22;63889;50.596;8.690;2024-02-16T15:24:58;15.40;99.90